createdAt,value
2018-04-26T00:00:43.954Z,0.00
2018-04-26T00:01:44.204Z,0.00
2018-04-26T00:02:44.469Z,0.00
2018-04-26T00:03:44.671Z,0.00
2018-04-26T00:04:44.878Z,0.00
2018-04-26T00:05:45.123Z,0.00
2018-04-26T00:06:45.355Z,0.00
2018-04-26T00:07:45.590Z,0.00
2018-04-26T00:08:45.830Z,0.00
2018-04-26T00:09:46.069Z,0.00
2018-04-26T00:10:46.324Z,0.00
2018-04-26T00:11:46.545Z,0.00
2018-04-26T00:12:46.774Z,0.00
2018-04-26T00:13:47.033Z,0.00
2018-04-26T00:14:47.238Z,0.00
2018-04-26T00:15:47.532Z,0.00
2018-04-26T00:16:47.698Z,0.00
2018-04-26T00:17:47.934Z,0.00
2018-04-26T00:18:48.189Z,0.00
2018-04-26T00:19:48.434Z,0.00
2018-04-26T00:20:48.653Z,0.00
2018-04-26T00:21:48.878Z,0.00
2018-04-26T00:22:49.127Z,0.00
2018-04-26T00:23:49.371Z,0.00
2018-04-26T00:24:49.593Z,0.00
2018-04-26T00:25:49.847Z,0.00
2018-04-26T00:26:50.083Z,0.00
2018-04-26T00:27:50.363Z,0.00
2018-04-26T00:28:50.581Z,0.00
2018-04-26T00:29:50.790Z,0.00
2018-04-26T00:30:51.036Z,0.00
2018-04-26T00:31:51.274Z,0.00
2018-04-26T00:32:51.511Z,0.00
2018-04-26T00:33:51.785Z,0.00
2018-04-26T00:34:52.007Z,0.00
2018-04-26T00:35:52.220Z,0.00
2018-04-26T00:36:52.453Z,0.00
2018-04-26T00:37:52.701Z,0.00
2018-04-26T00:38:52.928Z,0.00
2018-04-26T00:39:53.181Z,0.00
2018-04-26T00:40:53.419Z,0.00
2018-04-26T00:41:53.657Z,0.00
2018-04-26T00:42:53.892Z,0.00
2018-04-26T00:43:54.130Z,0.00
2018-04-26T00:44:54.350Z,0.00
2018-04-26T00:45:54.601Z,0.00
2018-04-26T00:46:54.822Z,0.00
2018-04-26T00:47:55.117Z,0.00
2018-04-26T00:48:55.359Z,0.00
2018-04-26T00:49:55.555Z,0.00
2018-04-26T00:50:55.799Z,0.00
2018-04-26T00:51:56.021Z,0.00
2018-04-26T00:52:56.241Z,0.00
2018-04-26T00:53:56.470Z,0.00
2018-04-26T00:54:56.755Z,0.00
2018-04-26T00:55:56.983Z,0.00
2018-04-26T00:56:57.197Z,0.00
2018-04-26T00:57:57.437Z,0.00
2018-04-26T00:58:57.657Z,0.00
2018-04-26T00:59:57.902Z,0.00
2018-04-26T01:00:58.130Z,0.00
2018-04-26T01:01:58.394Z,0.00
2018-04-26T01:02:58.601Z,0.00
2018-04-26T01:03:58.821Z,0.00
2018-04-26T01:04:59.071Z,0.00
2018-04-26T01:05:59.311Z,0.00
2018-04-26T01:06:59.511Z,0.00
2018-04-26T01:07:59.769Z,0.00
2018-04-26T01:08:59.976Z,0.00
2018-04-26T01:10:00.202Z,0.00
2018-04-26T01:11:00.436Z,0.00
2018-04-26T01:12:00.687Z,0.00
2018-04-26T01:13:00.902Z,0.00
2018-04-26T01:14:01.150Z,0.00
2018-04-26T01:15:01.355Z,0.00
2018-04-26T01:16:01.583Z,0.00
2018-04-26T01:17:01.808Z,0.00
2018-04-26T01:18:02.058Z,0.00
2018-04-26T01:19:02.295Z,0.00
2018-04-26T01:20:02.533Z,0.00
2018-04-26T01:21:02.741Z,0.00
2018-04-26T01:22:02.976Z,0.00
2018-04-26T01:23:03.222Z,0.00
2018-04-26T01:24:03.454Z,0.00
2018-04-26T01:25:03.674Z,0.00
2018-04-26T01:26:03.910Z,0.00
2018-04-26T01:27:04.171Z,0.00
2018-04-26T01:28:04.402Z,0.00
2018-04-26T01:29:04.639Z,0.00
2018-04-26T01:30:04.874Z,0.00
2018-04-26T01:31:05.125Z,0.00
2018-04-26T01:32:05.363Z,0.00
2018-04-26T01:33:05.566Z,0.00
2018-04-26T01:34:05.805Z,0.00
2018-04-26T01:35:06.035Z,0.00
2018-04-26T01:36:06.277Z,0.00
2018-04-26T01:37:06.541Z,0.00
2018-04-26T01:38:06.762Z,0.00
2018-04-26T01:39:06.968Z,0.00
2018-04-26T01:40:07.202Z,0.00
2018-04-26T01:41:07.433Z,0.00
2018-04-26T01:42:07.662Z,0.00
2018-04-26T01:43:07.891Z,0.00
2018-04-26T01:44:08.146Z,0.00
2018-04-26T01:45:08.368Z,0.00
2018-04-26T01:46:08.586Z,0.00
2018-04-26T01:47:08.822Z,0.00
2018-04-26T01:48:09.037Z,0.00
2018-04-26T01:49:09.268Z,0.00
2018-04-26T01:50:09.506Z,0.00
2018-04-26T01:51:09.751Z,0.00
2018-04-26T01:52:09.987Z,0.00
2018-04-26T01:53:10.266Z,0.00
2018-04-26T01:54:10.434Z,0.00
2018-04-26T01:55:10.687Z,0.00
2018-04-26T01:56:10.911Z,0.00
2018-04-26T01:57:11.129Z,0.00
2018-04-26T01:58:11.364Z,0.00
2018-04-26T01:59:11.626Z,0.00
2018-04-26T02:00:11.875Z,0.00
2018-04-26T02:01:12.097Z,0.00
2018-04-26T02:02:12.327Z,0.00
2018-04-26T02:03:12.565Z,0.00
2018-04-26T02:04:12.776Z,0.00
2018-04-26T02:05:13.035Z,0.00
2018-04-26T02:06:13.250Z,0.00
2018-04-26T02:07:13.497Z,0.00
2018-04-26T02:08:13.710Z,0.00
2018-04-26T02:09:13.937Z,0.00
2018-04-26T02:10:14.163Z,0.00
2018-04-26T02:11:14.400Z,0.00
2018-04-26T02:12:14.634Z,0.00
2018-04-26T02:13:14.869Z,0.00
2018-04-26T02:14:15.129Z,0.00
2018-04-26T02:15:15.318Z,0.00
2018-04-26T02:16:15.540Z,0.00
2018-04-26T02:17:15.774Z,0.00
2018-04-26T02:18:16.001Z,0.00
2018-04-26T02:19:16.259Z,0.00
2018-04-26T02:20:16.486Z,0.00
2018-04-26T02:21:16.716Z,0.00
2018-04-26T02:22:16.958Z,0.00
2018-04-26T02:23:17.214Z,0.00
2018-04-26T02:24:17.426Z,0.00
2018-04-26T02:25:17.648Z,0.00
2018-04-26T02:26:17.892Z,0.00
2018-04-26T02:27:18.144Z,0.00
2018-04-26T02:28:18.377Z,0.00
2018-04-26T02:29:18.599Z,0.00
2018-04-26T02:30:18.819Z,0.00
2018-04-26T02:31:19.113Z,0.00
2018-04-26T02:32:19.301Z,0.00
2018-04-26T02:33:19.544Z,0.00
2018-04-26T02:34:19.825Z,0.00
2018-04-26T02:35:20.017Z,0.00
2018-04-26T02:36:20.262Z,0.00
2018-04-26T02:37:20.476Z,0.00
2018-04-26T02:38:20.705Z,0.00
2018-04-26T02:39:20.942Z,0.00
2018-04-26T02:40:21.199Z,0.00
2018-04-26T02:41:21.401Z,0.00
2018-04-26T02:42:21.624Z,0.00
2018-04-26T02:43:21.874Z,0.00
2018-04-26T02:44:22.114Z,0.00
2018-04-26T02:45:22.357Z,0.00
2018-04-26T02:46:22.556Z,0.00
2018-04-26T02:47:22.783Z,0.00
2018-04-26T02:48:23.060Z,0.00
2018-04-26T02:49:23.262Z,0.00
2018-04-26T02:50:23.494Z,0.00
2018-04-26T02:51:23.740Z,0.00
2018-04-26T02:52:23.963Z,0.00
2018-04-26T02:53:24.183Z,0.00
2018-04-26T02:54:24.424Z,0.00
2018-04-26T02:55:24.669Z,0.00
2018-04-26T02:56:24.900Z,0.00
2018-04-26T02:57:25.116Z,0.00
2018-04-26T02:58:25.348Z,0.00
2018-04-26T02:59:25.614Z,0.00
2018-04-26T03:00:25.826Z,0.00
2018-04-26T03:01:26.060Z,0.00
2018-04-26T03:02:26.291Z,0.00
2018-04-26T03:03:26.559Z,0.00
2018-04-26T03:04:26.793Z,0.00
2018-04-26T03:05:27.013Z,0.00
2018-04-26T03:06:27.255Z,0.00
2018-04-26T03:07:27.497Z,0.00
2018-04-26T03:08:27.706Z,0.00
2018-04-26T03:09:27.940Z,0.00
2018-04-26T03:10:28.182Z,0.00
2018-04-26T03:11:28.397Z,0.00
2018-04-26T03:12:28.643Z,0.00
2018-04-26T03:13:28.875Z,0.00
2018-04-26T03:14:29.099Z,0.00
2018-04-26T03:15:29.422Z,0.00
2018-04-26T03:16:29.562Z,0.00
2018-04-26T03:17:29.829Z,0.00
2018-04-26T03:18:30.069Z,0.00
2018-04-26T03:19:30.305Z,0.00
2018-04-26T03:20:30.548Z,0.00
2018-04-26T03:21:30.755Z,0.00
2018-04-26T03:22:30.987Z,0.00
2018-04-26T03:23:31.229Z,0.00
2018-04-26T03:24:31.469Z,0.00
2018-04-26T03:25:31.718Z,0.00
2018-04-26T03:26:31.941Z,0.00
2018-04-26T03:27:32.203Z,0.00
2018-04-26T03:28:32.375Z,4.00
2018-04-26T03:29:32.662Z,4.00
2018-04-26T03:30:32.867Z,0.00
2018-04-26T03:31:33.104Z,0.00
2018-04-26T03:32:33.337Z,4.00
2018-04-26T03:33:33.590Z,0.00
2018-04-26T03:34:33.818Z,4.00
2018-04-26T03:35:34.036Z,4.00
2018-04-26T03:36:34.269Z,8.00
2018-04-26T03:37:34.492Z,8.00
2018-04-26T03:38:34.724Z,8.00
2018-04-26T03:39:34.951Z,12.00
2018-04-26T03:40:35.199Z,12.00
2018-04-26T03:41:35.436Z,12.00
2018-04-26T03:42:35.665Z,20.00
2018-04-26T03:43:35.908Z,20.00
2018-04-26T03:44:36.127Z,24.00
2018-04-26T03:45:36.378Z,28.00
2018-04-26T03:46:36.583Z,36.00
2018-04-26T03:47:36.835Z,36.00
2018-04-26T03:48:37.053Z,48.00
2018-04-26T03:49:37.300Z,52.00
2018-04-26T03:50:37.559Z,60.00
2018-04-26T03:51:37.751Z,72.00
2018-04-26T03:52:38.010Z,80.00
2018-04-26T03:53:38.233Z,92.00
2018-04-26T03:54:38.475Z,108.00
2018-04-26T03:55:38.708Z,124.00
2018-04-26T03:56:38.911Z,140.00
2018-04-26T03:57:39.152Z,156.00
2018-04-26T03:58:39.435Z,176.00
2018-04-26T03:59:39.648Z,196.00
2018-04-26T04:00:39.880Z,220.00
2018-04-26T04:01:40.141Z,248.00
2018-04-26T04:02:40.346Z,276.00
2018-04-26T04:03:40.574Z,304.00
2018-04-26T04:04:40.867Z,336.00
2018-04-26T04:05:41.086Z,368.00
2018-04-26T04:06:41.318Z,404.00
2018-04-26T04:07:41.548Z,444.00
2018-04-26T04:08:41.754Z,484.00
2018-04-26T04:09:42.027Z,528.00
2018-04-26T04:10:42.242Z,572.00
2018-04-26T04:11:42.469Z,616.00
2018-04-26T04:12:42.701Z,668.00
2018-04-26T04:13:42.959Z,716.00
2018-04-26T04:14:43.162Z,768.00
2018-04-26T04:15:43.391Z,820.00
2018-04-26T04:16:43.645Z,872.00
2018-04-26T04:17:43.882Z,928.00
2018-04-26T04:18:44.112Z,988.00
2018-04-26T04:19:44.351Z,1044.00
2018-04-26T04:20:44.566Z,1100.00
2018-04-26T04:21:44.824Z,1164.00
2018-04-26T04:22:45.048Z,1224.00
2018-04-26T04:23:45.267Z,1284.00
2018-04-26T04:24:45.498Z,1344.00
2018-04-26T04:25:45.729Z,1404.00
2018-04-26T04:26:45.992Z,1464.00
2018-04-26T04:27:46.228Z,1524.00
2018-04-26T04:28:46.462Z,1584.00
2018-04-26T04:29:46.701Z,1648.00
2018-04-26T04:30:46.921Z,1708.00
2018-04-26T04:31:47.186Z,1776.00
2018-04-26T04:32:47.395Z,1840.00
2018-04-26T04:33:47.627Z,1928.00
2018-04-26T04:34:47.862Z,2064.00
2018-04-26T04:35:48.085Z,2216.00
2018-04-26T04:36:48.313Z,2336.00
2018-04-26T04:37:48.560Z,2424.00
2018-04-26T04:38:48.800Z,2528.00
2018-04-26T04:39:49.082Z,2616.00
2018-04-26T04:40:49.280Z,2688.00
2018-04-26T04:41:49.518Z,2732.00
2018-04-26T04:42:49.774Z,2780.00
2018-04-26T04:43:49.982Z,2820.00
2018-04-26T04:44:50.216Z,2872.00
2018-04-26T04:45:50.447Z,2920.00
2018-04-26T04:46:50.706Z,2964.00
2018-04-26T04:47:50.920Z,2952.00
2018-04-26T04:48:51.143Z,2960.00
2018-04-26T04:49:51.379Z,2980.00
2018-04-26T04:50:51.633Z,2984.00
2018-04-26T04:51:51.888Z,2948.00
2018-04-26T04:52:52.112Z,2988.00
2018-04-26T04:53:52.353Z,3012.00
2018-04-26T04:54:52.577Z,2908.00
2018-04-26T04:55:52.804Z,2888.00
2018-04-26T04:56:53.038Z,3108.00
2018-04-26T04:57:53.275Z,3384.00
2018-04-26T04:58:53.502Z,3392.00
2018-04-26T04:59:53.729Z,3576.00
2018-04-26T05:00:53.965Z,3636.00
2018-04-26T05:01:54.274Z,3588.00
2018-04-26T05:02:54.444Z,3772.00
2018-04-26T05:03:54.681Z,3808.00
2018-04-26T05:04:54.918Z,3780.00
2018-04-26T05:05:55.143Z,3612.00
2018-04-26T05:06:55.373Z,3820.00
2018-04-26T05:07:55.610Z,3500.00
2018-04-26T05:08:55.857Z,3492.00
2018-04-26T05:09:56.097Z,3684.00
2018-04-26T05:10:56.316Z,3836.00
2018-04-26T05:11:56.569Z,3820.00
2018-04-26T05:12:56.836Z,4044.00
2018-04-26T05:13:57.028Z,3940.00
2018-04-26T05:14:57.269Z,3776.00
2018-04-26T05:15:57.485Z,3904.00
2018-04-26T05:16:57.741Z,3732.00
2018-04-26T05:17:57.974Z,3640.00
2018-04-26T05:18:58.262Z,3724.00
2018-04-26T05:19:58.501Z,3732.00
2018-04-26T05:20:58.719Z,3800.00
2018-04-26T05:21:58.965Z,3976.00
2018-04-26T05:22:59.191Z,3908.00
2018-04-26T05:23:59.405Z,3956.00
2018-04-26T05:24:59.642Z,3876.00
2018-04-26T05:25:59.870Z,3844.00
2018-04-26T05:27:00.138Z,3788.00
2018-04-26T05:28:00.342Z,3964.00
2018-04-26T05:29:00.601Z,4184.00
2018-04-26T05:30:00.838Z,4104.00
2018-04-26T05:31:01.041Z,4500.00
2018-04-26T05:32:01.282Z,4472.00
2018-04-26T05:33:01.522Z,4520.00
2018-04-26T05:34:01.763Z,4736.00
2018-04-26T05:35:02.005Z,4684.00
2018-04-26T05:36:02.247Z,4284.00
2018-04-26T05:37:02.481Z,4304.00
2018-04-26T05:38:02.709Z,4320.00
2018-04-26T05:39:02.932Z,4280.00
2018-04-26T05:40:03.162Z,4368.00
2018-04-26T05:41:03.427Z,4408.00
2018-04-26T05:42:03.669Z,4528.00
2018-04-26T05:43:03.890Z,4704.00
2018-04-26T05:44:04.136Z,5424.00
2018-04-26T05:45:04.329Z,5236.00
2018-04-26T05:46:04.569Z,4868.00
2018-04-26T05:47:04.888Z,4796.00
2018-04-26T05:48:05.079Z,4748.00
2018-04-26T05:49:05.325Z,4788.00
2018-04-26T05:50:05.540Z,4884.00
2018-04-26T05:51:05.876Z,5048.00
2018-04-26T05:52:06.024Z,5144.00
2018-04-26T05:53:06.261Z,5328.00
2018-04-26T05:54:06.497Z,5244.00
2018-04-26T05:55:06.736Z,5064.00
2018-04-26T05:56:06.974Z,5140.00
2018-04-26T05:57:07.224Z,5212.00
2018-04-26T05:58:07.426Z,5384.00
2018-04-26T05:59:07.685Z,5268.00
2018-04-26T06:00:07.914Z,5236.00
2018-04-26T06:01:08.133Z,5384.00
2018-04-26T06:02:08.368Z,5444.00
2018-04-26T06:03:08.603Z,5636.00
2018-04-26T06:04:08.828Z,5488.00
2018-04-26T06:05:09.083Z,5496.00
2018-04-26T06:06:09.284Z,5976.00
2018-04-26T06:07:09.530Z,5880.00
2018-04-26T06:08:09.767Z,6472.00
2018-04-26T06:09:10.010Z,6672.00
2018-04-26T06:10:10.272Z,6756.00
2018-04-26T06:11:10.469Z,6268.00
2018-04-26T06:12:10.739Z,6996.00
2018-04-26T06:13:11.010Z,6804.00
2018-04-26T06:14:18.793Z,7800.00
2018-04-26T06:15:11.477Z,8344.00
2018-04-26T06:16:11.715Z,8012.00
2018-04-26T06:17:12.047Z,7848.00
2018-04-26T06:18:12.191Z,7284.00
2018-04-26T06:19:12.430Z,6916.00
2018-04-26T06:20:12.669Z,6708.00
2018-04-26T06:21:12.934Z,6632.00
2018-04-26T06:22:13.151Z,6668.00
2018-04-26T06:23:21.041Z,7364.00
2018-04-26T06:24:13.677Z,8384.00
2018-04-26T06:25:13.919Z,9196.00
2018-04-26T06:26:14.185Z,9476.00
2018-04-26T06:27:14.396Z,9752.00
2018-04-26T06:28:14.631Z,9872.00
2018-04-26T06:29:14.874Z,10140.00
2018-04-26T06:30:15.111Z,10012.00
2018-04-26T06:31:15.367Z,9272.00
2018-04-26T06:32:15.596Z,8392.00
2018-04-26T06:33:25.357Z,7704.00
2018-04-26T06:34:23.872Z,7220.00
2018-04-26T06:35:25.144Z,7264.00
2018-04-26T06:36:16.887Z,7492.00
2018-04-26T06:37:17.124Z,7164.00
2018-04-26T06:38:27.113Z,6908.00
2018-04-26T06:39:26.225Z,6488.00
2018-04-26T06:40:26.919Z,6768.00
2018-04-26T06:41:26.936Z,6972.00
2018-04-26T06:42:18.746Z,7560.00
2018-04-26T06:43:18.907Z,7992.00
2018-04-26T06:44:26.801Z,9800.00
2018-04-26T06:45:28.190Z,16608.00
2018-04-26T06:46:28.969Z,10372.00
2018-04-26T06:47:29.000Z,11084.00
2018-04-26T06:48:29.064Z,9628.00
2018-04-26T06:49:28.441Z,9088.00
2018-04-26T06:50:21.181Z,8380.00
2018-04-26T06:51:32.570Z,7132.00
2018-04-26T06:52:21.999Z,7552.00
2018-04-26T06:53:22.124Z,8168.00
2018-04-26T06:54:31.120Z,9464.00
2018-04-26T06:55:22.656Z,9284.00
2018-04-26T06:56:31.545Z,8312.00
2018-04-26T06:57:23.530Z,6684.00
2018-04-26T06:58:31.264Z,6184.00
2018-04-26T06:59:23.938Z,6544.00
2018-04-26T07:00:24.179Z,7060.00
2018-04-26T07:01:24.427Z,7320.00
2018-04-26T07:02:24.653Z,7212.00
2018-04-26T07:03:24.893Z,6848.00
2018-04-26T07:04:25.128Z,6584.00
2018-04-26T07:05:25.370Z,6324.00
2018-04-26T07:06:25.611Z,6456.00
2018-04-26T07:07:25.853Z,6284.00
2018-04-26T07:08:26.180Z,6112.00
2018-04-26T07:09:26.411Z,6144.00
2018-04-26T07:10:26.568Z,6024.00
2018-04-26T07:11:26.801Z,6076.00
2018-04-26T07:12:27.038Z,6596.00
2018-04-26T07:13:27.281Z,6108.00
2018-04-26T07:14:27.518Z,5364.00
2018-04-26T07:15:27.752Z,5784.00
2018-04-26T07:16:28.003Z,6800.00
2018-04-26T07:17:28.234Z,7132.00
2018-04-26T07:18:28.474Z,8168.00
2018-04-26T07:19:28.706Z,9268.00
2018-04-26T07:20:28.943Z,9916.00
2018-04-26T07:21:29.187Z,10052.00
2018-04-26T07:22:29.423Z,9108.00
2018-04-26T07:23:29.665Z,9176.00
2018-04-26T07:24:29.905Z,9644.00
2018-04-26T07:25:30.144Z,11992.00
2018-04-26T07:26:30.384Z,18304.00
2018-04-26T07:27:30.624Z,21248.00
2018-04-26T07:28:30.864Z,20608.00
2018-04-26T07:29:31.105Z,17888.00
2018-04-26T07:30:31.347Z,14000.00
2018-04-26T07:31:31.591Z,13400.00
2018-04-26T07:32:31.831Z,11548.00
2018-04-26T07:33:32.076Z,10752.00
2018-04-26T07:34:32.318Z,11244.00
2018-04-26T07:35:32.562Z,12764.00
2018-04-26T07:36:32.801Z,13236.00
2018-04-26T07:37:33.043Z,17184.00
2018-04-26T07:38:33.284Z,11940.00
2018-04-26T07:39:33.524Z,12500.00
2018-04-26T07:40:33.767Z,12492.00
2018-04-26T07:41:34.009Z,15236.00
2018-04-26T07:42:34.248Z,26848.00
2018-04-26T07:43:34.489Z,24736.00
2018-04-26T07:44:34.728Z,24128.00
2018-04-26T07:45:34.971Z,25280.00
2018-04-26T07:46:35.214Z,23968.00
2018-04-26T07:47:35.453Z,31008.00
2018-04-26T07:48:35.696Z,28416.00
2018-04-26T07:49:35.940Z,21248.00
2018-04-26T07:50:36.182Z,17248.00
2018-04-26T07:51:36.481Z,14272.00
2018-04-26T07:52:36.688Z,11804.00
2018-04-26T07:53:36.934Z,12496.00
2018-04-26T07:54:37.178Z,14004.00
2018-04-26T07:55:37.421Z,18144.00
2018-04-26T07:56:37.664Z,26496.00
2018-04-26T07:57:37.907Z,23616.00
2018-04-26T07:58:38.150Z,22176.00
2018-04-26T07:59:38.393Z,20032.00
2018-04-26T08:00:38.630Z,17248.00
2018-04-26T08:01:39.047Z,13792.00
2018-04-26T08:02:39.126Z,12696.00
2018-04-26T08:03:39.369Z,15500.00
2018-04-26T08:04:39.603Z,15588.00
2018-04-26T08:05:39.847Z,16752.00
2018-04-26T08:06:40.091Z,20992.00
2018-04-26T08:07:40.334Z,22592.00
2018-04-26T08:08:40.574Z,20544.00
2018-04-26T08:09:40.816Z,18144.00
2018-04-26T08:10:41.059Z,19616.00
2018-04-26T08:11:41.378Z,21664.00
2018-04-26T08:12:41.547Z,24800.00
2018-04-26T08:13:41.791Z,26240.00
2018-04-26T08:14:42.041Z,34528.00
2018-04-26T08:15:42.280Z,40064.00
2018-04-26T08:16:42.522Z,41184.00
2018-04-26T08:17:42.765Z,38496.00
2018-04-26T08:18:43.009Z,29856.00
2018-04-26T08:19:43.304Z,42080.00
2018-04-26T08:20:43.497Z,43040.00
2018-04-26T08:21:43.743Z,45984.00
2018-04-26T08:22:43.986Z,45792.00
2018-04-26T08:23:44.228Z,48320.00
2018-04-26T08:24:44.474Z,18016.00
2018-04-26T08:25:44.719Z,30464.00
2018-04-26T08:26:44.963Z,49696.00
2018-04-26T08:27:45.208Z,20736.00
2018-04-26T08:28:45.454Z,52096.00
2018-04-26T08:29:45.698Z,55712.00
2018-04-26T08:30:45.964Z,56928.00
2018-04-26T08:31:46.188Z,23840.00
2018-04-26T08:32:46.434Z,21792.00
2018-04-26T08:33:46.719Z,17600.00
2018-04-26T08:34:46.968Z,14308.00
2018-04-26T08:35:47.217Z,13988.00
2018-04-26T08:36:47.475Z,12508.00
2018-04-26T08:37:47.714Z,12552.00
2018-04-26T08:38:47.957Z,11068.00
2018-04-26T08:39:48.204Z,12076.00
2018-04-26T08:40:48.450Z,14364.00
2018-04-26T08:41:48.694Z,20704.00
2018-04-26T08:42:49.006Z,60032.00
2018-04-26T08:43:49.268Z,54336.00
2018-04-26T08:44:49.513Z,46528.00
2018-04-26T08:45:49.760Z,58624.00
2018-04-26T08:46:50.013Z,58944.00
2018-04-26T08:47:50.251Z,36384.00
2018-04-26T08:48:50.497Z,61728.00
2018-04-26T08:49:50.744Z,60416.00
2018-04-26T08:50:50.993Z,62240.00
2018-04-26T08:51:51.237Z,63616.00
2018-04-26T08:52:51.477Z,66048.00
2018-04-26T08:53:51.723Z,42528.00
2018-04-26T08:54:51.971Z,64512.00
2018-04-26T08:55:52.220Z,64608.00
2018-04-26T08:56:52.463Z,63584.00
2018-04-26T08:57:52.712Z,64576.00
2018-04-26T08:58:52.959Z,63392.00
2018-04-26T08:59:53.207Z,64704.00
2018-04-26T09:00:53.455Z,67232.00
2018-04-26T09:01:53.703Z,67648.00
2018-04-26T09:02:53.950Z,63008.00
2018-04-26T09:03:54.201Z,64192.00
2018-04-26T09:04:54.446Z,67232.00
2018-04-26T09:05:54.693Z,64256.00
2018-04-26T09:06:54.942Z,63808.00
2018-04-26T09:07:55.189Z,64576.00
2018-04-26T09:08:55.438Z,65888.00
2018-04-26T09:09:55.687Z,65056.00
2018-04-26T09:10:55.935Z,65952.00
2018-04-26T09:11:56.184Z,67200.00
2018-04-26T09:12:56.431Z,65856.00
2018-04-26T09:13:56.681Z,62688.00
2018-04-26T09:14:56.928Z,67712.00
2018-04-26T09:15:57.270Z,70112.00
2018-04-26T09:16:57.428Z,64704.00
2018-04-26T09:17:57.676Z,71232.00
2018-04-26T09:18:57.925Z,74656.00
2018-04-26T09:19:58.175Z,58528.00
2018-04-26T09:20:58.425Z,53152.00
2018-04-26T09:21:58.741Z,73856.00
2018-04-26T09:22:58.922Z,56416.00
2018-04-26T09:23:59.172Z,75680.00
2018-04-26T09:24:59.421Z,81920.00
2018-04-26T09:25:59.672Z,88736.00
2018-04-26T09:26:59.924Z,65920.00
2018-04-26T09:28:00.176Z,83648.00
2018-04-26T09:29:00.422Z,86496.00
2018-04-26T09:30:00.683Z,55712.00
2018-04-26T09:31:00.920Z,28992.00
2018-04-26T09:32:01.159Z,27776.00
2018-04-26T09:33:01.409Z,21408.00
2018-04-26T09:34:01.659Z,20864.00
2018-04-26T09:35:01.909Z,24192.00
2018-04-26T09:36:02.158Z,21568.00
2018-04-26T09:37:02.408Z,19520.00
2018-04-26T09:38:02.656Z,19680.00
2018-04-26T09:39:02.909Z,47136.00
2018-04-26T09:40:03.158Z,62752.00
2018-04-26T09:41:03.403Z,24256.00
2018-04-26T09:42:03.652Z,20512.00
2018-04-26T09:43:03.898Z,19328.00
2018-04-26T09:44:04.148Z,19776.00
2018-04-26T09:45:04.394Z,85536.00
2018-04-26T09:46:04.641Z,83488.00
2018-04-26T09:47:04.885Z,83936.00
2018-04-26T09:48:05.132Z,84384.00
2018-04-26T09:49:05.380Z,85696.00
2018-04-26T09:50:05.630Z,85888.00
2018-04-26T09:51:05.878Z,81728.00
2018-04-26T09:52:06.122Z,81728.00
2018-04-26T09:53:06.374Z,85504.00
2018-04-26T09:54:06.615Z,88896.00
2018-04-26T09:55:06.864Z,88192.00
2018-04-26T09:56:07.112Z,88256.00
2018-04-26T09:57:07.362Z,90752.00
2018-04-26T09:58:07.609Z,91456.00
2018-04-26T09:59:07.857Z,90016.00
2018-04-26T10:00:08.105Z,92224.00
2018-04-26T10:01:08.358Z,95328.00
2018-04-26T10:02:08.603Z,30528.00
2018-04-26T10:03:08.852Z,88192.00
2018-04-26T10:04:09.101Z,31776.00
2018-04-26T10:05:09.351Z,44832.00
2018-04-26T10:06:09.602Z,21856.00
2018-04-26T10:07:09.851Z,17824.00
2018-04-26T10:08:10.103Z,13896.00
2018-04-26T10:09:10.347Z,10248.00
2018-04-26T10:10:10.596Z,7500.00
2018-04-26T10:11:10.845Z,5356.00
2018-04-26T10:12:11.097Z,4444.00
2018-04-26T10:13:11.349Z,5656.00
2018-04-26T10:14:11.594Z,8052.00
2018-04-26T10:15:11.853Z,10064.00
2018-04-26T10:16:12.085Z,10832.00
2018-04-26T10:17:12.331Z,12784.00
2018-04-26T10:18:12.578Z,15104.00
2018-04-26T10:19:12.823Z,16832.00
2018-04-26T10:20:13.069Z,13436.00
2018-04-26T10:21:13.389Z,12572.00
2018-04-26T10:22:13.556Z,12448.00
2018-04-26T10:23:13.800Z,13528.00
2018-04-26T10:24:14.045Z,17760.00
2018-04-26T10:25:14.288Z,14736.00
2018-04-26T10:26:14.530Z,7736.00
2018-04-26T10:27:14.775Z,4916.00
2018-04-26T10:28:15.020Z,4708.00
2018-04-26T10:29:15.263Z,4792.00
2018-04-26T10:30:15.506Z,4756.00
2018-04-26T10:31:15.752Z,5144.00
2018-04-26T10:32:15.996Z,5368.00
2018-04-26T10:33:16.239Z,6272.00
2018-04-26T10:34:16.486Z,8100.00
2018-04-26T10:35:16.730Z,10200.00
2018-04-26T10:36:16.972Z,11404.00
2018-04-26T10:37:17.213Z,12300.00
2018-04-26T10:38:17.455Z,11140.00
2018-04-26T10:39:17.697Z,9952.00
2018-04-26T10:40:17.938Z,11916.00
2018-04-26T10:41:18.179Z,15540.00
2018-04-26T10:42:18.420Z,18208.00
2018-04-26T10:43:18.661Z,20448.00
2018-04-26T10:44:18.988Z,24288.00
2018-04-26T10:45:19.143Z,27168.00
2018-04-26T10:46:19.383Z,106912.00
2018-04-26T10:47:19.622Z,46368.00
2018-04-26T10:48:19.864Z,90240.00
2018-04-26T10:49:20.103Z,51040.00
2018-04-26T10:50:20.345Z,26432.00
2018-04-26T10:51:20.586Z,20320.00
2018-04-26T10:52:20.828Z,16080.00
2018-04-26T10:53:21.068Z,14064.00
2018-04-26T10:54:21.310Z,12760.00
2018-04-26T10:55:21.551Z,12296.00
2018-04-26T10:56:21.793Z,12904.00
2018-04-26T10:57:22.035Z,14036.00
2018-04-26T10:58:22.277Z,15476.00
2018-04-26T10:59:22.519Z,17536.00
2018-04-26T11:00:22.762Z,19200.00
2018-04-26T11:01:23.004Z,20896.00
2018-04-26T11:02:23.245Z,15684.00
2018-04-26T11:03:23.491Z,12064.00
2018-04-26T11:04:23.735Z,9220.00
2018-04-26T11:05:23.976Z,8164.00
2018-04-26T11:06:24.218Z,7540.00
2018-04-26T11:07:24.459Z,7740.00
2018-04-26T11:08:24.702Z,8972.00
2018-04-26T11:09:24.943Z,10632.00
2018-04-26T11:10:25.184Z,12328.00
2018-04-26T11:11:25.461Z,14532.00
2018-04-26T11:12:25.667Z,17216.00
2018-04-26T11:13:25.909Z,19072.00
2018-04-26T11:14:26.165Z,22496.00
2018-04-26T11:15:26.423Z,27616.00
2018-04-26T11:16:26.645Z,23296.00
2018-04-26T11:17:26.871Z,25888.00
2018-04-26T11:18:27.113Z,39200.00
2018-04-26T11:19:27.357Z,46016.00
2018-04-26T11:20:27.599Z,64672.00
2018-04-26T11:21:27.841Z,67680.00
2018-04-26T11:22:28.082Z,39968.00
2018-04-26T11:23:28.412Z,62944.00
2018-04-26T11:24:28.716Z,85536.00
2018-04-26T11:25:28.902Z,62528.00
2018-04-26T11:26:29.147Z,97312.00
2018-04-26T11:27:29.504Z,99200.00
2018-04-26T11:28:29.751Z,91904.00
2018-04-26T11:29:29.994Z,111520.00
2018-04-26T11:30:30.239Z,106400.00
2018-04-26T11:31:30.485Z,104512.00
2018-04-26T11:32:30.730Z,106304.00
2018-04-26T11:33:30.977Z,108256.00
2018-04-26T11:34:31.221Z,108704.00
2018-04-26T11:35:31.469Z,108832.00
2018-04-26T11:36:31.785Z,107584.00
2018-04-26T11:37:32.014Z,104256.00
2018-04-26T11:38:32.453Z,100928.00
2018-04-26T11:39:32.593Z,99168.00
2018-04-26T11:40:32.842Z,99264.00
2018-04-26T11:41:33.093Z,99936.00
2018-04-26T11:42:33.388Z,102848.00
2018-04-26T11:43:33.635Z,105280.00
2018-04-26T11:44:33.963Z,103136.00
2018-04-26T11:45:34.337Z,99936.00
2018-04-26T11:46:34.635Z,101856.00
2018-04-26T11:47:34.999Z,107392.00
2018-04-26T11:48:35.355Z,110720.00
2018-04-26T11:49:35.606Z,108416.00
2018-04-26T11:50:35.857Z,106816.00
2018-04-26T11:51:36.110Z,108736.00
2018-04-26T11:52:36.443Z,113088.00
2018-04-26T11:53:36.689Z,114816.00
2018-04-26T11:54:36.940Z,113312.00
2018-04-26T11:55:37.191Z,111520.00
2018-04-26T11:56:37.443Z,103168.00
2018-04-26T11:57:37.697Z,114144.00
2018-04-26T11:58:37.948Z,118080.00
2018-04-26T11:59:38.200Z,33792.00
2018-04-26T12:00:38.451Z,113440.00
2018-04-26T12:01:38.710Z,118368.00
2018-04-26T12:02:39.015Z,42016.00
2018-04-26T12:03:39.206Z,32352.00
2018-04-26T12:04:39.457Z,105600.00
2018-04-26T12:05:39.708Z,109664.00
2018-04-26T12:06:39.958Z,75616.00
2018-04-26T12:07:40.262Z,109568.00
2018-04-26T12:08:40.459Z,86144.00
2018-04-26T12:09:40.760Z,114880.00
2018-04-26T12:10:41.010Z,121664.00
2018-04-26T12:11:41.262Z,111936.00
2018-04-26T12:12:41.517Z,103616.00
2018-04-26T12:13:41.771Z,107200.00
2018-04-26T12:14:42.023Z,111040.00
2018-04-26T12:15:42.272Z,109696.00
2018-04-26T12:16:42.523Z,71040.00
2018-04-26T12:17:42.774Z,38944.00
2018-04-26T12:18:43.026Z,75648.00
2018-04-26T12:19:43.284Z,124000.00
2018-04-26T12:20:43.527Z,90496.00